Time;durP1;ratioP1;P1;durP2;ratioP2;P2;SDS_P1;SDS_P2;PMS_P1;PMS_P2;Temp;Humidity;BMP_temperature;BMP_pressure;BME280_temperature;BME280_humidity;BME280_pressure;Samples;Min_cycle;Max_cycle;Signal;HPM_P1;HPM_P2
2022/01/23 00:01:46;;;;;;;59.40;32.57;;;5.00;99.90;;;;;;5075478;28;20249;-63
2022/01/23 00:04:12;;;;;;;67.90;35.23;;;5.10;99.90;;;;;;5075647;28;20162;-64
2022/01/23 00:06:38;;;;;;;67.70;33.50;;;5.10;99.90;;;;;;5075154;28;20792;-64
2022/01/23 00:09:04;;;;;;;61.13;33.60;;;5.00;99.90;;;;;;5075322;28;20174;-64
2022/01/23 00:11:31;;;;;;;61.93;32.40;;;5.00;99.90;;;;;;5075156;28;20192;-63
2022/01/23 00:19:12;;;;;;;64.13;34.40;;;5.00;99.90;;;;;;5075003;28;20169;-64
2022/01/23 00:21:40;;;;;;;57.37;31.17;;;5.00;99.90;;;;;;5074079;28;20627;-64
2022/01/23 00:32:03;;;;;;;60.20;30.70;;;5.00;99.90;;;;;;5074974;28;20533;-63
2022/01/23 00:34:29;;;;;;;61.07;30.30;;;5.00;99.90;;;;;;5074821;28;20170;-64
2022/01/23 00:36:54;;;;;;;57.87;31.90;;;5.00;99.90;;;;;;5074473;28;20335;-64
2022/01/23 00:39:20;;;;;;;56.97;31.77;;;5.00;99.90;;;;;;5074566;28;20185;-64
2022/01/23 00:41:46;;;;;;;57.97;30.57;;;5.00;99.90;;;;;;5074676;28;20178;-64
2022/01/23 00:44:11;;;;;;;59.53;33.27;;;4.90;99.90;;;;;;5074759;28;20248;-64
2022/01/23 00:46:39;;;;;;;57.07;29.93;;;4.90;99.90;;;;;;5074095;28;20213;-64
2022/01/23 00:51:34;;;;;;;61.57;32.67;;;4.90;99.90;;;;;;5074589;28;20174;-64
2022/01/23 00:54:02;;;;;;;60.83;32.60;;;4.90;99.90;;;;;;5074271;28;20174;-64
2022/01/23 00:56:28;;;;;;;67.13;33.43;;;4.90;99.90;;;;;;5074130;28;20231;-64
2022/01/23 00:58:54;;;;;;;55.77;30.87;;;4.90;99.90;;;;;;5074104;28;20640;-64
2022/01/23 01:01:20;;;;;;;66.53;35.07;;;4.90;99.90;;;;;;5073137;28;20182;-63
2022/01/23 01:03:47;;;;;;;66.97;33.67;;;4.90;99.90;;;;;;5074704;28;20525;-64
2022/01/23 01:06:13;;;;;;;61.37;32.33;;;4.90;99.90;;;;;;5073788;28;20241;-64
2022/01/23 01:08:40;;;;;;;58.07;33.23;;;4.90;99.90;;;;;;5072690;28;20211;-64
2022/01/23 01:14:25;;;;;;;59.97;31.43;;;4.90;99.90;;;;;;5074140;28;20681;-63
2022/01/23 01:35:22;;;;;;;48.20;26.73;;;4.80;99.90;;;;;;5073591;28;20259;-64
2022/01/23 01:37:48;;;;;;;50.57;27.60;;;4.80;99.90;;;;;;5071724;28;20197;-64
2022/01/23 01:40:14;;;;;;;48.80;25.53;;;4.80;99.90;;;;;;5073501;28;20280;-63
2022/01/23 01:42:40;;;;;;;44.03;26.57;;;4.80;99.90;;;;;;5073480;28;20292;-64
2022/01/23 01:45:06;;;;;;;49.63;26.00;;;4.80;99.90;;;;;;5073335;28;20204;-65
2022/01/23 01:47:32;;;;;;;49.97;26.80;;;4.80;99.90;;;;;;5073402;28;20193;-64
2022/01/23 01:49:58;;;;;;;52.30;29.53;;;4.80;99.90;;;;;;5073819;28;20206;-65
2022/01/23 01:52:24;;;;;;;58.20;29.17;;;4.80;99.90;;;;;;5073381;28;20642;-64
2022/01/23 01:54:59;;;;;;;54.77;28.23;;;4.80;99.90;;;;;;5073892;28;20639;-65
2022/01/23 01:57:29;;;;;;;50.63;27.23;;;4.70;99.90;;;;;;5072017;28;20287;-65
2022/01/23 02:08:22;;;;;;;47.40;26.77;;;4.70;99.90;;;;;;5073387;28;20542;-64
2022/01/23 02:10:52;;;;;;;56.30;29.07;;;4.70;99.90;;;;;;5073494;28;20155;-64
2022/01/23 02:13:23;;;;;;;54.60;27.70;;;4.70;99.90;;;;;;5073121;28;20169;-64
2022/01/23 02:24:11;;;;;;;56.80;29.43;;;4.70;99.90;;;;;;5073586;28;20236;-64
2022/01/23 02:52:08;;;;;;;48.60;26.70;;;4.60;99.90;;;;;;5077152;28;20169;-64
2022/01/23 02:54:52;;;;;;;50.73;24.90;;;4.60;99.90;;;;;;5075245;28;20173;-64
2022/01/23 02:57:31;;;;;;;47.57;25.20;;;4.60;99.90;;;;;;5076428;28;20186;-64
2022/01/23 02:59:57;;;;;;;50.20;26.27;;;4.60;99.90;;;;;;5076942;28;20161;-63
2022/01/23 03:02:35;;;;;;;46.07;24.27;;;4.60;99.90;;;;;;5076593;28;20531;-64
2022/01/23 03:05:02;;;;;;;42.27;24.70;;;4.70;99.90;;;;;;5074911;28;20654;-64
2022/01/23 03:07:53;;;;;;;51.37;25.27;;;4.60;99.90;;;;;;5075020;28;20693;-64
2022/01/23 03:10:20;;;;;;;47.37;23.83;;;4.60;99.90;;;;;;5076274;28;20774;-64
2022/01/23 03:31:25;;;;;;;44.37;23.47;;;4.60;99.90;;;;;;5076487;28;20235;-64
2022/01/23 03:33:52;;;;;;;45.87;22.57;;;4.60;99.90;;;;;;5075909;28;20162;-65
2022/01/23 03:36:19;;;;;;;45.97;23.43;;;4.60;99.90;;;;;;5076137;28;20218;-64
2022/01/23 03:38:45;;;;;;;42.33;24.13;;;4.50;99.90;;;;;;5077431;28;20154;-64
2022/01/23 03:41:12;;;;;;;42.07;21.13;;;4.50;99.90;;;;;;5075272;28;20209;-64
2022/01/23 03:43:39;;;;;;;42.03;21.97;;;4.50;99.90;;;;;;5075179;28;20695;-64
2022/01/23 03:51:12;;;;;;;46.13;23.70;;;4.50;99.90;;;;;;5075803;28;20170;-64
2022/01/23 03:53:38;;;;;;;42.60;22.77;;;4.50;99.90;;;;;;5075402;28;20176;-64
2022/01/23 03:56:05;;;;;;;40.43;23.13;;;4.50;99.90;;;;;;5074043;28;20212;-64
2022/01/23 03:58:31;;;;;;;45.97;22.67;;;4.50;99.90;;;;;;5075488;28;20231;-64
2022/01/23 04:00:57;;;;;;;43.47;22.20;;;4.50;99.90;;;;;;5074243;28;20177;-64
2022/01/23 04:03:23;;;;;;;40.80;23.57;;;4.50;99.90;;;;;;5075577;28;20242;-63
2022/01/23 04:05:50;;;;;;;44.23;23.90;;;4.50;99.90;;;;;;5075017;28;20212;-64
2022/01/23 04:08:17;;;;;;;42.20;22.70;;;4.60;99.90;;;;;;5076097;28;20497;-64
2022/01/23 04:10:43;;;;;;;48.57;24.03;;;4.60;99.90;;;;;;5075482;28;20166;-64
2022/01/23 04:13:17;;;;;;;43.67;24.27;;;4.60;99.90;;;;;;5075228;28;20170;-64
2022/01/23 04:19:04;;;;;;;45.17;24.70;;;4.60;99.90;;;;;;5075415;28;20527;-64
2022/01/23 04:35:13;;;;;;;52.87;26.10;;;4.50;99.90;;;;;;5074670;28;20545;-64
2022/01/23 05:04:31;;;;;;;45.50;22.83;;;4.50;99.90;;;;;;5074603;28;20531;-64
2022/01/23 05:07:03;;;;;;;44.07;23.77;;;4.50;99.90;;;;;;5074247;28;20284;-64
2022/01/23 05:09:30;;;;;;;40.40;23.10;;;4.50;99.90;;;;;;5074052;28;20187;-64
2022/01/23 05:11:59;;;;;;;43.87;23.00;;;4.50;99.90;;;;;;5072775;28;20185;-64
2022/01/23 05:14:36;;;;;;;42.60;23.27;;;4.50;99.90;;;;;;5073844;28;20182;-64
2022/01/23 05:17:03;;;;;;;50.07;25.87;;;4.60;99.90;;;;;;5072528;28;20193;-64
2022/01/23 05:19:29;;;;;;;42.07;24.33;;;4.50;99.90;;;;;;5074078;28;20566;-64
2022/01/23 05:24:41;;;;;;;51.40;25.43;;;4.50;99.90;;;;;;5074038;28;20169;-64
2022/01/23 05:27:10;;;;;;;44.07;24.40;;;4.50;99.90;;;;;;5073628;28;20209;-64
2022/01/23 05:29:37;;;;;;;48.40;24.63;;;4.50;99.90;;;;;;5073692;28;20657;-64
2022/01/23 05:32:04;;;;;;;44.43;23.63;;;4.50;99.90;;;;;;5073660;28;20240;-65
2022/01/23 05:34:30;;;;;;;43.50;23.93;;;4.50;99.90;;;;;;5073595;28;20638;-64
2022/01/23 05:36:56;;;;;;;44.70;22.77;;;4.50;99.90;;;;;;5073461;28;20198;-64
2022/01/23 05:39:25;;;;;;;55.53;26.73;;;4.50;99.90;;;;;;5073542;28;20178;-64
2022/01/23 05:41:57;;;;;;;44.87;24.23;;;4.50;99.90;;;;;;5072263;28;20236;-64
2022/01/23 05:44:23;;;;;;;51.83;26.93;;;4.50;99.90;;;;;;5072249;28;20173;-64
2022/01/23 05:46:49;;;;;;;42.60;23.63;;;4.50;99.90;;;;;;5073268;28;20741;-64
2022/01/23 05:49:15;;;;;;;42.70;22.80;;;4.50;99.90;;;;;;5073263;28;20259;-64
2022/01/23 05:51:41;;;;;;;44.83;23.83;;;4.50;99.90;;;;;;5072008;28;20264;-64
2022/01/23 05:54:07;;;;;;;48.47;26.47;;;4.60;99.90;;;;;;5073441;28;20174;-64
2022/01/23 05:56:32;;;;;;;39.00;22.57;;;4.60;99.90;;;;;;5073393;28;20197;-64
2022/01/23 05:58:58;;;;;;;48.57;25.67;;;4.60;99.90;;;;;;5073230;28;20176;-64
2022/01/23 06:01:24;;;;;;;52.57;25.97;;;4.60;99.90;;;;;;5073676;28;20236;-64
2022/01/23 06:03:50;;;;;;;51.07;26.13;;;4.60;99.90;;;;;;5073113;28;20242;-64
2022/01/23 06:06:15;;;;;;;38.00;21.93;;;4.50;99.90;;;;;;5073333;28;20618;-64
2022/01/23 06:08:42;;;;;;;38.60;22.27;;;4.50;99.90;;;;;;5073059;28;20174;-64
2022/01/23 06:11:08;;;;;;;37.97;20.60;;;4.50;99.90;;;;;;5073337;28;20200;-64
2022/01/23 06:13:34;;;;;;;37.47;21.90;;;4.50;99.90;;;;;;5071744;28;20209;-64
2022/01/23 06:16:00;;;;;;;37.97;22.23;;;4.50;99.90;;;;;;5072934;28;20198;-64
2022/01/23 06:18:26;;;;;;;34.90;19.90;;;4.50;99.90;;;;;;5073214;28;20169;-64
2022/01/23 06:20:52;;;;;;;43.00;23.03;;;4.50;99.90;;;;;;5073328;28;20536;-64
2022/01/23 06:23:17;;;;;;;38.37;22.63;;;4.50;99.90;;;;;;5073053;28;20182;-64
2022/01/23 06:25:45;;;;;;;43.63;23.53;;;4.50;99.90;;;;;;5076846;28;20255;-64
2022/01/23 06:28:19;;;;;;;44.37;22.77;;;4.50;99.90;;;;;;5075774;28;20193;-64
2022/01/23 06:30:45;;;;;;;45.07;23.50;;;4.50;99.90;;;;;;5075731;28;20166;-64
2022/01/23 06:33:11;;;;;;;50.27;24.60;;;4.50;99.90;;;;;;5077457;28;20531;-64
2022/01/23 06:35:37;;;;;;;49.07;24.57;;;4.50;99.90;;;;;;5075500;28;20273;-64
2022/01/23 06:38:03;;;;;;;44.97;23.53;;;4.50;99.90;;;;;;5075595;28;20213;-64
2022/01/23 06:40:29;;;;;;;48.30;23.80;;;4.50;99.90;;;;;;5076806;28;20631;-64
2022/01/23 06:42:55;;;;;;;40.63;22.67;;;4.50;99.90;;;;;;5075403;28;20189;-64
2022/01/23 06:45:21;;;;;;;40.27;23.07;;;4.40;99.90;;;;;;5075317;28;20202;-64
2022/01/23 06:47:46;;;;;;;44.00;21.90;;;4.40;99.90;;;;;;5075273;28;20200;-64
2022/01/23 06:50:12;;;;;;;42.10;23.20;;;4.40;99.90;;;;;;5076874;28;20178;-64
2022/01/23 06:52:38;;;;;;;46.13;24.50;;;4.40;99.90;;;;;;5075250;28;20181;-64
2022/01/23 06:55:04;;;;;;;46.37;24.37;;;4.40;99.90;;;;;;5076525;28;20206;-64
2022/01/23 06:57:29;;;;;;;41.20;22.37;;;4.40;99.90;;;;;;5076327;28;20236;-64
2022/01/23 06:59:55;;;;;;;41.30;23.07;;;4.40;99.90;;;;;;5076413;28;20178;-64
2022/01/23 07:02:21;;;;;;;40.60;22.13;;;4.40;99.90;;;;;;5075298;28;20186;-64
2022/01/23 07:04:47;;;;;;;35.03;20.60;;;4.50;99.90;;;;;;5076782;28;20560;-64
2022/01/23 07:07:12;;;;;;;39.43;22.13;;;4.50;99.90;;;;;;5074912;28;20226;-64
2022/01/23 07:09:38;;;;;;;36.67;20.40;;;4.50;99.90;;;;;;5076771;28;20295;-64
2022/01/23 07:12:04;;;;;;;43.30;22.23;;;4.50;99.90;;;;;;5076178;28;20185;-64
2022/01/23 07:14:30;;;;;;;43.07;21.33;;;4.50;99.90;;;;;;5076396;28;20509;-64
2022/01/23 07:16:55;;;;;;;41.77;20.30;;;4.50;99.90;;;;;;5076270;28;20204;-64
2022/01/23 07:19:21;;;;;;;35.23;20.60;;;4.50;99.90;;;;;;5076244;28;20209;-64
2022/01/23 07:21:47;;;;;;;38.60;20.40;;;4.50;99.90;;;;;;5076032;28;20177;-64
2022/01/23 07:24:13;;;;;;;40.33;21.63;;;4.50;99.90;;;;;;5076009;28;20178;-64
2022/01/23 07:26:39;;;;;;;35.80;20.07;;;4.60;99.90;;;;;;5074553;28;20237;-64
2022/01/23 07:29:06;;;;;;;35.73;19.60;;;4.60;99.90;;;;;;5075927;28;20189;-64
2022/01/23 07:34:09;;;;;;;29.13;17.83;;;4.60;99.90;;;;;;5075723;28;20642;-64
2022/01/23 07:36:36;;;;;;;33.70;19.10;;;4.60;99.90;;;;;;5075710;28;20216;-64
2022/01/23 07:39:03;;;;;;;32.90;19.77;;;4.60;99.90;;;;;;5076023;28;20230;-64
2022/01/23 07:41:29;;;;;;;33.93;19.00;;;4.60;99.90;;;;;;5074296;28;20638;-64
2022/01/23 07:43:55;;;;;;;35.67;18.83;;;4.60;99.90;;;;;;5074327;28;20189;-64
2022/01/23 07:46:21;;;;;;;33.10;19.60;;;4.60;99.90;;;;;;5075668;28;20220;-64
2022/01/23 07:48:47;;;;;;;35.83;19.77;;;4.60;99.90;;;;;;5075451;28;20166;-64
2022/01/23 07:51:13;;;;;;;35.50;19.47;;;4.60;99.90;;;;;;5074144;28;20553;-64
2022/01/23 07:53:39;;;;;;;37.57;22.33;;;4.60;99.90;;;;;;5075507;28;20170;-64
2022/01/23 07:56:05;;;;;;;42.70;22.07;;;4.60;99.90;;;;;;5074101;28;20205;-66
2022/01/23 07:58:31;;;;;;;40.10;20.37;;;4.60;99.90;;;;;;5075717;28;20182;-71
2022/01/23 08:00:56;;;;;;;35.83;20.43;;;4.60;99.90;;;;;;5075284;28;20161;-64
2022/01/23 08:03:22;;;;;;;39.40;19.47;;;4.60;99.90;;;;;;5074043;28;20643;-64
2022/01/23 08:05:48;;;;;;;30.10;17.47;;;4.60;99.90;;;;;;5075221;28;20210;-64
2022/01/23 08:08:14;;;;;;;41.33;20.87;;;4.60;99.90;;;;;;5073965;28;20170;-65
2022/01/23 08:10:40;;;;;;;29.70;17.23;;;4.60;99.90;;;;;;5075135;28;20174;-64
2022/01/23 08:13:06;;;;;;;33.43;18.20;;;4.70;99.90;;;;;;5073766;28;20189;-64
2022/01/23 08:15:35;;;;;;;40.63;21.30;;;4.70;99.90;;;;;;5073727;28;20188;-65
2022/01/23 08:18:06;;;;;;;40.63;19.90;;;4.70;99.90;;;;;;5073681;28;20189;-64
2022/01/23 08:20:33;;;;;;;36.57;19.90;;;4.70;99.90;;;;;;5075324;28;20166;-64
2022/01/23 08:23:01;;;;;;;36.07;18.80;;;4.70;99.90;;;;;;5073606;28;20181;-64
2022/01/23 08:25:27;;;;;;;39.27;20.77;;;4.80;99.90;;;;;;5074698;28;20198;-65
2022/01/23 08:27:53;;;;;;;35.67;18.37;;;4.80;99.90;;;;;;5075377;28;20514;-64
2022/01/23 08:30:19;;;;;;;40.10;21.13;;;4.80;99.90;;;;;;5075000;28;20235;-64
2022/01/23 08:32:45;;;;;;;36.53;20.03;;;4.80;99.90;;;;;;5075252;28;20170;-64
2022/01/23 08:35:11;;;;;;;38.03;19.73;;;4.70;99.90;;;;;;5074623;28;20178;-64
2022/01/23 08:37:36;;;;;;;36.73;19.40;;;4.80;99.90;;;;;;5073961;28;20292;-64
2022/01/23 08:40:04;;;;;;;37.87;20.30;;;4.80;99.90;;;;;;5075123;28;20638;-65
2022/01/23 08:42:30;;;;;;;43.50;21.27;;;4.70;99.90;;;;;;5075033;28;20174;-64
2022/01/23 08:44:56;;;;;;;40.47;19.93;;;4.70;99.90;;;;;;5074355;28;20382;-65
2022/01/23 08:47:23;;;;;;;42.30;21.40;;;4.80;99.90;;;;;;5072528;28;20201;-65
2022/01/23 08:49:50;;;;;;;47.03;22.70;;;4.80;99.90;;;;;;5074584;28;20174;-64
2022/01/23 08:52:19;;;;;;;42.63;22.70;;;4.80;99.90;;;;;;5073127;28;20265;-64
2022/01/23 08:54:49;;;;;;;43.40;23.07;;;4.90;99.90;;;;;;5074482;28;20634;-64
2022/01/23 08:57:16;;;;;;;43.53;21.93;;;4.90;99.90;;;;;;5072836;28;20197;-64
2022/01/23 08:59:42;;;;;;;48.17;24.33;;;4.90;99.90;;;;;;5074373;28;20174;-64
2022/01/23 09:02:09;;;;;;;44.33;22.93;;;4.90;99.90;;;;;;5072978;28;20665;-64
2022/01/23 09:04:34;;;;;;;46.50;23.40;;;4.90;99.90;;;;;;5074013;28;20226;-64
2022/01/23 09:07:00;;;;;;;53.50;25.43;;;5.00;99.90;;;;;;5072610;28;20630;-64
2022/01/23 09:09:30;;;;;;;51.23;24.77;;;4.90;99.90;;;;;;5074021;28;20174;-64
2022/01/23 09:14:23;;;;;;;48.20;24.83;;;5.00;99.90;;;;;;5074193;28;20205;-64
2022/01/23 09:16:51;;;;;;;54.03;23.97;;;5.00;99.90;;;;;;5072515;28;20198;-64
2022/01/23 09:19:18;;;;;;;54.57;26.20;;;5.00;99.90;;;;;;5073753;28;20228;-64
2022/01/23 09:21:45;;;;;;;49.37;24.60;;;5.00;99.90;;;;;;5072548;28;20246;-64
2022/01/23 09:24:11;;;;;;;47.83;24.50;;;5.00;99.90;;;;;;5073780;28;20646;-64
2022/01/23 09:26:37;;;;;;;48.53;24.47;;;5.00;99.90;;;;;;5072413;28;20263;-64
2022/01/23 09:29:14;;;;;;;52.37;23.80;;;5.00;99.90;;;;;;5073687;28;20177;-64
2022/01/23 09:31:49;;;;;;;45.27;22.40;;;5.10;99.90;;;;;;5074143;28;20519;-65
2022/01/23 09:34:20;;;;;;;53.93;26.63;;;5.10;99.90;;;;;;5072469;28;20691;-64
2022/01/23 09:36:47;;;;;;;51.17;26.27;;;5.20;99.90;;;;;;5072428;28;20201;-64
2022/01/23 09:39:15;;;;;;;54.40;25.13;;;5.20;99.90;;;;;;5072317;28;20189;-64
2022/01/23 09:42:05;;;;;;;49.30;24.30;;;5.20;99.90;;;;;;5073608;28;20205;-64
2022/01/23 09:44:37;;;;;;;45.90;23.50;;;5.20;99.90;;;;;;5072475;28;20177;-64
2022/01/23 09:47:03;;;;;;;51.83;23.90;;;5.30;99.90;;;;;;5073745;28;20258;-64
2022/01/23 09:49:30;;;;;;;48.13;23.67;;;5.30;99.90;;;;;;5077017;28;20504;-68
2022/01/23 09:52:01;;;;;;;42.17;23.43;;;5.30;99.90;;;;;;5074812;28;20188;-65
2022/01/23 09:54:30;;;;;;;45.80;23.57;;;5.20;99.90;;;;;;5075046;28;20249;-64
2022/01/23 09:57:02;;;;;;;36.40;20.07;;;5.30;99.90;;;;;;5072290;28;20283;-66
2022/01/23 09:59:29;;;;;;;45.10;24.20;;;5.40;99.90;;;;;;5073081;28;20162;-67
2022/01/23 10:01:56;;;;;;;42.43;22.23;;;5.40;99.90;;;;;;5073517;28;20184;-67
2022/01/23 10:04:24;;;;;;;44.07;21.23;;;5.40;99.90;;;;;;5073756;28;20158;-68
2022/01/23 10:06:50;;;;;;;38.57;21.50;;;5.40;99.90;;;;;;5071878;28;20591;-67
2022/01/23 10:09:17;;;;;;;35.60;20.80;;;5.50;99.90;;;;;;5073727;28;20174;-67
2022/01/23 10:11:43;;;;;;;35.53;20.40;;;5.50;99.90;;;;;;5073600;28;20206;-67
2022/01/23 10:14:10;;;;;;;40.13;22.37;;;5.60;99.90;;;;;;5073796;28;20170;-67
2022/01/23 10:16:36;;;;;;;40.53;20.97;;;5.60;99.90;;;;;;5073458;28;20201;-68
2022/01/23 10:19:04;;;;;;;44.00;23.13;;;5.60;99.90;;;;;;5073530;28;20174;-67
2022/01/23 10:21:34;;;;;;;38.47;21.90;;;5.50;99.90;;;;;;5073517;28;20208;-67
2022/01/23 10:24:01;;;;;;;40.07;20.97;;;5.60;99.90;;;;;;5074087;28;20223;-67
2022/01/23 10:26:44;;;;;;;36.93;20.60;;;5.60;99.90;;;;;;5072415;28;20217;-67
2022/01/23 10:29:12;;;;;;;43.27;22.23;;;5.60;99.90;;;;;;5073668;28;20569;-67
2022/01/23 10:32:02;;;;;;;42.90;21.90;;;5.70;99.90;;;;;;5073803;28;20170;-67
2022/01/23 10:34:45;;;;;;;35.37;20.10;;;5.70;99.90;;;;;;5073136;28;20162;-67
2022/01/23 10:37:22;;;;;;;38.83;20.60;;;5.80;99.90;;;;;;5071793;28;20225;-72
2022/01/23 10:39:48;;;;;;;39.53;21.60;;;5.90;99.90;;;;;;5073481;28;20240;-67
2022/01/23 10:48:56;;;;;;;35.33;19.97;;;5.80;99.90;;;;;;5073531;28;20603;-71
2022/01/23 10:51:17;;;;;;;37.97;21.17;;;5.80;99.90;;;;;;5074135;28;20275;-69
2022/01/23 10:54:16;;;;;;;36.07;20.73;;;5.80;99.90;;;;;;5073942;28;20573;-69
2022/01/23 10:57:07;;;;;;;34.37;20.07;;;5.80;99.90;;;;;;5071545;28;20583;-67
2022/01/23 10:59:44;;;;;;;43.63;21.17;;;5.80;99.90;;;;;;5072909;28;20162;-67
2022/01/23 11:02:13;;;;;;;33.60;20.17;;;5.80;99.90;;;;;;5071667;28;20555;-67
2022/01/23 11:05:03;;;;;;;40.53;21.10;;;5.80;99.90;;;;;;5073047;28;20611;-67
2022/01/23 11:07:31;;;;;;;36.17;19.57;;;5.70;99.90;;;;;;5072789;28;20696;-68
2022/01/23 11:10:21;;;;;;;41.17;21.00;;;5.80;99.90;;;;;;5073559;28;20185;-70
2022/01/23 11:18:15;;;;;;;35.33;19.30;;;5.80;99.90;;;;;;5076686;28;20161;-68
2022/01/23 11:20:42;;;;;;;38.40;20.10;;;5.80;99.90;;;;;;5076228;28;20270;-67
2022/01/23 11:23:13;;;;;;;38.07;20.63;;;5.90;99.90;;;;;;5074756;28;20205;-70
2022/01/23 11:25:44;;;;;;;31.07;18.53;;;6.00;99.90;;;;;;5075861;28;20194;-67
2022/01/23 11:28:11;;;;;;;41.33;21.97;;;5.90;99.90;;;;;;5075964;28;20182;-67
2022/01/23 11:30:43;;;;;;;35.27;20.10;;;5.90;99.90;;;;;;5076407;28;20282;-67
2022/01/23 11:33:11;;;;;;;34.80;20.37;;;5.90;99.90;;;;;;5075869;28;20641;-67
2022/01/23 11:35:38;;;;;;;38.93;20.50;;;5.80;99.90;;;;;;5074389;28;20208;-67
2022/01/23 11:38:10;;;;;;;33.67;19.97;;;5.80;99.90;;;;;;5074341;28;20206;-67
2022/01/23 11:50:37;;;;;;;36.83;20.60;;;5.80;99.90;;;;;;5075795;28;20308;-67
2022/01/23 11:55:35;;;;;;;28.67;18.43;;;5.90;99.90;;;;;;5075476;28;20211;-67
2022/01/23 11:58:04;;;;;;;28.93;17.57;;;5.90;99.90;;;;;;5075316;28;20169;-67
2022/01/23 12:00:31;;;;;;;27.57;16.53;;;5.90;99.90;;;;;;5075344;28;20667;-67
2022/01/23 12:03:18;;;;;;;28.10;16.83;;;5.90;99.90;;;;;;5075543;28;20169;-65
2022/01/23 12:05:49;;;;;;;31.13;18.77;;;5.90;99.90;;;;;;5075546;28;20526;-64
2022/01/23 12:08:32;;;;;;;35.43;19.50;;;5.90;99.90;;;;;;5075241;28;20154;-65
2022/01/23 12:11:23;;;;;;;29.77;18.40;;;6.00;99.90;;;;;;5075529;28;20151;-64
2022/01/23 12:16:57;;;;;;;27.87;17.27;;;6.10;99.90;;;;;;5075285;28;20205;-65
2022/01/23 12:19:29;;;;;;;32.90;19.17;;;6.10;99.90;;;;;;5075075;28;20215;-64
2022/01/23 12:21:59;;;;;;;32.30;18.60;;;6.10;99.90;;;;;;5074010;28;20208;-64
2022/01/23 12:24:26;;;;;;;31.13;19.10;;;6.20;99.90;;;;;;5073722;28;20174;-64
2022/01/23 12:27:24;;;;;;;32.60;18.33;;;6.20;99.90;;;;;;5074716;28;20216;-64
2022/01/23 12:29:50;;;;;;;34.33;19.70;;;6.20;99.90;;;;;;5075068;28;20170;-65
2022/01/23 12:32:26;;;;;;;34.90;19.53;;;6.20;99.90;;;;;;5073360;28;20635;-64
2022/01/23 12:34:56;;;;;;;31.13;18.93;;;6.20;99.90;;;;;;5074688;28;20181;-65
2022/01/23 12:37:22;;;;;;;31.57;18.37;;;6.20;99.90;;;;;;5074634;28;20700;-64
2022/01/23 12:40:37;;;;;;;29.93;19.10;;;6.20;99.90;;;;;;5074645;28;20177;-65
2022/01/23 12:43:05;;;;;;;31.67;18.70;;;6.10;99.90;;;;;;5068943;28;20200;-65
2022/01/23 12:45:43;;;;;;;33.77;19.87;;;6.10;99.90;;;;;;5074230;28;20212;-65
2022/01/23 12:48:36;;;;;;;32.77;19.13;;;6.10;99.90;;;;;;5072991;28;20169;-64
2022/01/23 12:51:31;;;;;;;30.07;18.40;;;6.00;99.90;;;;;;5071926;28;20273;-64
2022/01/23 12:53:57;;;;;;;36.13;19.87;;;6.00;99.90;;;;;;5074126;28;20182;-64
2022/01/23 12:56:24;;;;;;;37.27;20.33;;;6.00;99.90;;;;;;5074001;28;20232;-65
2022/01/23 12:58:53;;;;;;;35.73;20.83;;;6.00;99.90;;;;;;5074058;28;20263;-64
2022/01/23 13:01:24;;;;;;;33.53;18.43;;;5.90;99.90;;;;;;5073929;28;20248;-65
2022/01/23 13:03:55;;;;;;;31.33;19.27;;;5.90;99.90;;;;;;5072613;28;20166;-64
2022/01/23 13:06:48;;;;;;;33.20;18.63;;;5.90;99.90;;;;;;5074078;28;20209;-67
2022/01/23 13:10:04;;;;;;;35.10;19.97;;;6.00;99.90;;;;;;5074160;28;20158;-66
2022/01/23 13:12:33;;;;;;;30.00;19.13;;;6.10;99.90;;;;;;5073283;28;20240;-66
2022/01/23 13:17:50;;;;;;;33.40;18.93;;;6.20;99.90;;;;;;5074824;28;20232;-67
2022/01/23 13:34:21;;;;;;;28.57;17.63;;;6.10;99.90;;;;;;5073439;28;20503;-67
2022/01/23 13:37:14;;;;;;;30.00;18.73;;;6.10;99.90;;;;;;5072020;28;20713;-67
2022/01/23 13:40:00;;;;;;;32.50;18.80;;;6.10;99.90;;;;;;5073068;28;20737;-72
2022/01/23 14:02:17;;;;;;;30.63;16.60;;;6.30;99.90;;;;;;5073160;28;20255;-67
2022/01/23 14:04:56;;;;;;;26.47;16.73;;;6.30;99.90;;;;;;5071841;28;20623;-68
2022/01/23 14:07:25;;;;;;;24.40;16.33;;;6.30;99.90;;;;;;5072872;28;20193;-68
2022/01/23 14:09:51;;;;;;;27.17;16.67;;;6.30;99.90;;;;;;5073251;28;20166;-68
2022/01/23 14:12:19;;;;;;;27.27;16.57;;;6.30;99.90;;;;;;5073036;28;20204;-67
2022/01/23 14:14:57;;;;;;;26.87;17.07;;;6.30;99.90;;;;;;5072891;28;20177;-67
2022/01/23 14:17:35;;;;;;;28.27;15.83;;;6.30;99.90;;;;;;5073150;28;20193;-67
2022/01/23 14:20:05;;;;;;;27.87;16.60;;;6.30;99.90;;;;;;5073216;28;20162;-67
2022/01/23 14:22:34;;;;;;;26.33;15.30;;;6.30;99.90;;;;;;5073214;28;20288;-67
2022/01/23 14:25:17;;;;;;;24.60;16.33;;;6.30;99.90;;;;;;5071821;28;20311;-68
2022/01/23 14:28:06;;;;;;;25.07;14.63;;;6.20;99.90;;;;;;5072901;28;20665;-67
2022/01/23 14:30:32;;;;;;;24.80;15.87;;;6.20;99.90;;;;;;5073392;28;20196;-67
2022/01/23 14:33:07;;;;;;;24.87;14.37;;;6.20;99.90;;;;;;5072797;28;20214;-67
2022/01/23 14:35:34;;;;;;;26.40;14.57;;;6.20;99.90;;;;;;5072411;28;20219;-68
2022/01/23 14:38:15;;;;;;;26.57;16.17;;;6.20;99.90;;;;;;5071624;28;20256;-67
2022/01/23 14:40:59;;;;;;;26.67;17.10;;;6.20;99.90;;;;;;5071425;28;20190;-67
2022/01/23 14:43:32;;;;;;;29.27;17.23;;;6.20;99.90;;;;;;5071445;28;20174;-66
2022/01/23 14:45:59;;;;;;;35.10;17.47;;;6.20;99.90;;;;;;5073626;28;20765;-67
2022/01/23 14:48:25;;;;;;;27.27;16.57;;;6.20;99.90;;;;;;5076609;28;20634;-67
2022/01/23 14:50:53;;;;;;;29.47;17.10;;;6.20;99.90;;;;;;5077464;28;20657;-67
2022/01/23 14:53:24;;;;;;;23.73;16.87;;;6.10;99.90;;;;;;5076510;28;20537;-66
2022/01/23 14:55:59;;;;;;;24.57;16.27;;;6.10;99.90;;;;;;5075303;28;20281;-66
2022/01/23 14:58:25;;;;;;;26.30;16.30;;;6.10;99.90;;;;;;5075262;28;20252;-66
2022/01/23 15:00:54;;;;;;;25.57;15.20;;;6.10;99.90;;;;;;5076274;28;20173;-66
2022/01/23 15:03:23;;;;;;;24.73;15.73;;;6.10;99.90;;;;;;5076463;28;20578;-66
2022/01/23 15:05:48;;;;;;;31.97;16.20;;;6.10;99.90;;;;;;5074966;28;20221;-66
2022/01/23 15:08:21;;;;;;;23.07;14.10;;;6.10;99.90;;;;;;5074860;28;20597;-66
2022/01/23 15:10:48;;;;;;;21.80;14.53;;;6.00;99.90;;;;;;5076379;28;20512;-67
2022/01/23 15:13:14;;;;;;;24.70;14.57;;;6.00;99.90;;;;;;5076110;28;20175;-66
2022/01/23 15:15:41;;;;;;;22.60;15.77;;;6.00;99.90;;;;;;5074872;28;20643;-66
2022/01/23 15:18:08;;;;;;;25.17;16.37;;;6.00;99.90;;;;;;5076021;28;20182;-67
2022/01/23 15:20:35;;;;;;;24.97;17.47;;;6.00;99.90;;;;;;5076227;28;20202;-66
2022/01/23 15:23:03;;;;;;;30.83;18.27;;;6.00;99.90;;;;;;5077347;28;20173;-65
2022/01/23 15:25:29;;;;;;;27.03;17.20;;;6.00;99.90;;;;;;5076651;28;20247;-67
2022/01/23 15:27:54;;;;;;;24.53;16.73;;;6.00;99.90;;;;;;5076436;28;20198;-68
2022/01/23 15:30:23;;;;;;;25.13;16.57;;;6.00;99.90;;;;;;5074453;28;20184;-68
2022/01/23 15:32:51;;;;;;;26.23;16.53;;;6.00;99.90;;;;;;5075703;28;20216;-68
2022/01/23 15:35:18;;;;;;;25.27;15.83;;;6.00;99.90;;;;;;5075442;28;20180;-68
2022/01/23 15:37:44;;;;;;;24.10;14.20;;;5.90;99.90;;;;;;5075524;28;20579;-68
2022/01/23 15:40:12;;;;;;;24.00;14.53;;;5.90;99.90;;;;;;5075560;28;20239;-69
2022/01/23 15:42:39;;;;;;;24.47;15.37;;;5.90;99.90;;;;;;5076179;28;20198;-68
2022/01/23 15:45:06;;;;;;;24.10;15.03;;;5.90;99.90;;;;;;5075577;28;20249;-68
2022/01/23 15:47:32;;;;;;;24.23;15.57;;;5.90;99.90;;;;;;5074168;28;20288;-68
2022/01/23 15:49:58;;;;;;;28.27;17.57;;;5.90;99.90;;;;;;5075392;28;20181;-68
2022/01/23 15:52:24;;;;;;;25.23;15.47;;;5.90;99.90;;;;;;5075712;28;20155;-68
2022/01/23 15:54:49;;;;;;;28.17;16.00;;;5.90;99.90;;;;;;5075331;28;20677;-68
2022/01/23 15:57:16;;;;;;;25.10;15.50;;;5.90;99.90;;;;;;5074141;28;20251;-69
2022/01/23 15:59:42;;;;;;;22.97;15.10;;;5.80;99.90;;;;;;5075472;28;20662;-68
2022/01/23 16:02:07;;;;;;;22.70;13.83;;;5.80;99.90;;;;;;5075544;28;20174;-68
2022/01/23 16:04:35;;;;;;;24.03;15.43;;;5.80;99.90;;;;;;5075431;28;20174;-68
2022/01/23 16:07:03;;;;;;;24.30;14.50;;;5.80;99.90;;;;;;5074126;28;20214;-66
2022/01/23 16:09:29;;;;;;;21.93;14.80;;;5.80;99.90;;;;;;5075516;28;20204;-66
2022/01/23 16:11:54;;;;;;;24.30;15.47;;;5.80;99.90;;;;;;5075623;28;20178;-66
2022/01/23 16:14:20;;;;;;;24.43;14.30;;;5.80;99.90;;;;;;5075079;28;20197;-65
2022/01/23 16:16:48;;;;;;;23.07;14.40;;;5.80;99.90;;;;;;5075275;28;20208;-66
2022/01/23 16:19:14;;;;;;;27.50;15.10;;;5.80;99.90;;;;;;5076110;28;20166;-66
2022/01/23 16:21:41;;;;;;;24.63;15.37;;;5.80;99.90;;;;;;5078333;28;20244;-67
2022/01/23 16:24:08;;;;;;;27.07;16.83;;;5.70;99.90;;;;;;5078569;28;20560;-66
2022/01/23 16:26:33;;;;;;;26.43;16.60;;;5.70;99.90;;;;;;5077160;28;20241;-66